Time;durP1;ratioP1;P1;durP2;ratioP2;P2;SDS_P1;SDS_P2;PMS_P1;PMS_P2;Temp;Humidity;BMP_temperature;BMP_pressure;BME280_temperature;BME280_humidity;BME280_pressure;Samples;Min_cycle;Max_cycle;Signal;HPM_P1;HPM_P2
2022/03/24 01:09:31;;;;;;;58.75;35.05;;;;;;;;;;6232366;22;20004;-87
2022/03/24 01:11:58;;;;;;;57.05;34.38;;;;;;;;;;6180954;23;20008;-89
2022/03/24 01:14:25;;;;;;;58.28;33.78;;;;;;;;;;6182024;22;20004;-89
2022/03/24 01:17:01;;;;;;;60.65;35.22;;;;;;;;;;6206193;22;20032;-87
2022/03/24 01:19:51;;;;;;;58.53;33.45;;;;;;;;;;6181864;23;20015;-88
2022/03/24 01:25:08;;;;;;;56.85;34.33;;;;;;;;;;6210948;23;20033;-90
2022/03/24 01:27:35;;;;;;;58.88;34.15;;;;;;;;;;6159568;23;20039;-89
2022/03/24 01:30:05;;;;;;;58.15;33.75;;;;;;;;;;6158076;23;20012;-90
2022/03/24 01:32:34;;;;;;;65.53;37.42;;;;;;;;;;6157267;23;20016;-89
2022/03/24 01:35:01;;;;;;;63.15;36.22;;;;;;;;;;6133228;23;20984;-90
2022/03/24 01:37:27;;;;;;;57.25;35.05;;;;;;;;;;6155838;23;20361;-88
2022/03/24 01:39:54;;;;;;;60.25;36.72;;;;;;;;;;6131325;23;20115;-90
2022/03/24 01:42:25;;;;;;;58.75;33.28;;;;;;;;;;6156651;23;20558;-90
2022/03/24 01:44:57;;;;;;;54.42;32.40;;;;;;;;;;6158072;23;20013;-89
2022/03/24 01:47:41;;;;;;;62.28;33.80;;;;;;;;;;6158445;23;20013;-90
2022/03/24 01:50:16;;;;;;;;;;;;;;;;;;6160943;23;20016;-90
2022/03/24 01:52:56;;;;;;;68.20;34.15;;;;;;;;;;6185752;23;19969;-90
2022/03/24 01:56:01;;;;;;;58.88;32.50;;;;;;;;;;6136056;23;20016;-90
2022/03/24 01:58:52;;;;;;;56.88;32.13;;;;;;;;;;6176727;23;20013;-89
2022/03/24 02:01:36;;;;;;;57.75;33.72;;;;;;;;;;6156160;23;20059;-89
2022/03/24 02:04:09;;;;;;;63.30;35.63;;;;;;;;;;6154425;23;20031;-91
2022/03/24 02:06:49;;;;;;;60.35;36.20;;;;;;;;;;6155126;23;20020;-90
2022/03/24 02:09:18;;;;;;;66.25;37.50;;;;;;;;;;6154272;23;20017;-89
2022/03/24 02:11:52;;;;;;;64.93;36.08;;;;;;;;;;6154419;23;20012;-89
2022/03/24 02:14:22;;;;;;;63.47;36.85;;;;;;;;;;6130400;23;20382;-90
2022/03/24 02:16:58;;;;;;;64.30;36.15;;;;;;;;;;6152474;23;20115;-90
2022/03/24 02:19:35;;;;;;;69.30;37.33;;;;;;;;;;6152533;23;20015;-90
2022/03/24 02:22:19;;;;;;;64.20;35.88;;;;;;;;;;6153095;23;20492;-91
2022/03/24 02:25:33;;;;;;;;;;;;;;;;;;;;;
2022/03/24 02:28:22;;;;;;;64.65;36.35;;;;;;;;;;6177348;23;20009;-90
2022/03/24 02:31:11;;;;;;;60.13;37.17;;;;;;;;;;6155368;23;20013;-89
2022/03/24 02:33:58;;;;;;;;;;;;;;;;;;;;;
2022/03/24 02:36:33;;;;;;;66.45;37.75;;;;;;;;;;6208691;23;20017;-89
2022/03/24 08:35:59;;;;;;;70.75;42.08;;;;;;;;;;6179168;23;20102;-89
2022/03/24 08:38:43;;;;;;;72.72;41.17;;;;;;;;;;6204895;23;20104;-89
2022/03/24 08:41:18;;;;;;;67.50;39.35;;;;;;;;;;6131188;23;20519;-89
2022/03/24 08:46:51;;;;;;;71.88;40.88;;;;;;;;;;6122359;23;20024;-89
2022/03/24 08:49:18;;;;;;;68.20;40.75;;;;;;;;;;6130715;23;20052;-90
2022/03/24 08:52:08;;;;;;;70.13;39.33;;;;;;;;;;6130369;23;20056;-89
2022/03/24 09:05:40;;;;;;;59.97;34.17;;;;;;;;;;6210215;23;20449;-89
2022/03/24 09:08:14;;;;;;;62.80;35.75;;;;;;;;;;6158698;23;20059;-90
2022/03/24 09:10:43;;;;;;;57.85;33.45;;;;;;;;;;6157785;23;20537;-91
2022/03/24 09:13:09;;;;;;;56.28;33.53;;;;;;;;;;6159403;23;20533;-89
2022/03/24 09:15:35;;;;;;;61.10;35.42;;;;;;;;;;6160273;23;20017;-89
2022/03/24 09:18:04;;;;;;;58.67;33.83;;;;;;;;;;6184664;23;20532;-89
2022/03/24 09:20:33;;;;;;;55.42;34.70;;;;;;;;;;6183322;23;20016;-89
2022/03/24 09:22:59;;;;;;;60.17;34.88;;;;;;;;;;6159873;23;20039;-90
2022/03/24 09:25:28;;;;;;;56.28;33.35;;;;;;;;;;6160027;23;20017;-90
2022/03/24 09:27:57;;;;;;;56.85;33.60;;;;;;;;;;6160299;23;20035;-89
2022/03/24 09:30:32;;;;;;;54.60;31.38;;;;;;;;;;6161435;23;20020;-90
2022/03/24 09:33:01;;;;;;;54.00;33.50;;;;;;;;;;6161709;23;20528;-90
2022/03/24 09:35:28;;;;;;;64.78;32.97;;;;;;;;;;6187415;23;20013;-89
2022/03/24 09:37:55;;;;;;;54.35;31.55;;;;;;;;;;6160323;23;20048;-89
2022/03/24 09:40:21;;;;;;;54.05;31.38;;;;;;;;;;6182729;23;20013;-89
2022/03/24 09:42:47;;;;;;;52.00;32.05;;;;;;;;;;6188308;23;20466;-89
2022/03/24 09:45:13;;;;;;;53.50;31.80;;;;;;;;;;6164036;23;20337;-89
2022/03/24 09:47:40;;;;;;;53.80;32.20;;;;;;;;;;6164655;23;20017;-90
2022/03/24 09:50:08;;;;;;;53.88;32.55;;;;;;;;;;6184848;23;20294;-86
2022/03/24 09:52:34;;;;;;;49.00;30.23;;;;;;;;;;6186067;23;20008;-87
2022/03/24 09:55:03;;;;;;;51.45;32.75;;;;;;;;;;6185852;23;20143;-90
2022/03/24 09:57:29;;;;;;;55.25;34.17;;;;;;;;;;6186338;23;20034;-89
2022/03/24 10:00:06;;;;;;;51.85;32.05;;;;;;;;;;6186184;23;20509;-90
2022/03/24 10:02:33;;;;;;;54.25;30.27;;;;;;;;;;6162813;23;20023;-91
2022/03/24 10:05:01;;;;;;;50.88;32.65;;;;;;;;;;6185407;23;20501;-90
2022/03/24 10:07:28;;;;;;;55.95;30.23;;;;;;;;;;6237867;23;20017;-90
2022/03/24 10:09:56;;;;;;;52.03;31.38;;;;;;;;;;6185594;23;20485;-87
2022/03/24 10:12:22;;;;;;;52.40;32.30;;;;;;;;;;6184450;23;20020;-90
2022/03/24 10:15:03;;;;;;;55.00;31.60;;;;;;;;;;6184922;23;20017;-90
2022/03/24 10:17:30;;;;;;;53.28;32.60;;;;;;;;;;6182994;23;20019;-89
2022/03/24 10:19:57;;;;;;;57.58;33.03;;;;;;;;;;6183890;23;20481;-89
2022/03/24 10:22:24;;;;;;;52.22;33.38;;;;;;;;;;6185023;23;20051;-88
2022/03/24 10:24:50;;;;;;;51.88;32.85;;;;;;;;;;6184349;23;20582;-89
2022/03/24 10:27:23;;;;;;;50.05;30.30;;;;;;;;;;6159074;23;20044;-90
2022/03/24 10:29:54;;;;;;;53.08;30.98;;;;;;;;;;6185832;23;20052;-88
2022/03/24 10:32:20;;;;;;;56.92;31.98;;;;;;;;;;6186254;23;20012;-89
2022/03/24 10:34:48;;;;;;;54.15;32.60;;;;;;;;;;6160250;23;20082;-88
2022/03/24 10:37:17;;;;;;;47.95;31.33;;;;;;;;;;6159037;23;20042;-87
2022/03/24 10:40:05;;;;;;;48.92;31.08;;;;;;;;;;6188553;23;20527;-90
2022/03/24 10:42:32;;;;;;;53.65;30.13;;;;;;;;;;6235512;23;20017;-89
2022/03/24 10:45:06;;;;;;;56.17;32.28;;;;;;;;;;6184877;23;20020;-89
2022/03/24 10:47:54;;;;;;;56.40;31.30;;;;;;;;;;6183121;23;20017;-89
2022/03/24 10:50:26;;;;;;;54.67;32.92;;;;;;;;;;6185075;23;20020;-89
2022/03/24 10:52:53;;;;;;;61.85;33.83;;;;;;;;;;6183477;23;20216;-89
2022/03/24 10:55:34;;;;;;;59.88;33.80;;;;;;;;;;6185194;23;20013;-90
2022/03/24 10:58:03;;;;;;;47.72;30.80;;;;;;;;;;6185374;23;20027;-90
2022/03/24 11:00:30;;;;;;;51.55;31.50;;;;;;;;;;6184020;23;20382;-87
2022/03/24 11:02:59;;;;;;;56.78;32.58;;;;;;;;;;6185056;23;20252;-89
2022/03/24 11:05:44;;;;;;;50.75;31.75;;;;;;;;;;6184198;23;20070;-89
2022/03/24 11:08:10;;;;;;;47.83;29.38;;;;;;;;;;6181680;23;20150;-89
2022/03/24 11:10:46;;;;;;;44.08;27.55;;;;;;;;;;6157555;23;20013;-89
2022/03/24 11:13:18;;;;;;;50.47;29.67;;;;;;;;;;6186910;23;20020;-89
2022/03/24 11:15:44;;;;;;;41.83;26.63;;;;;;;;;;6184904;23;20104;-90
2022/03/24 11:18:12;;;;;;;43.85;28.38;;;;;;;;;;6185135;23;20093;-90
2022/03/24 11:20:39;;;;;;;45.72;27.58;;;;;;;;;;6184070;23;20059;-88
2022/03/24 11:23:13;;;;;;;49.25;26.80;;;;;;;;;;6160044;23;20074;-89
2022/03/24 11:25:39;;;;;;;45.05;28.05;;;;;;;;;;6184438;23;20019;-88
2022/03/24 11:28:11;;;;;;;48.15;26.55;;;;;;;;;;6160341;23;20511;-90
2022/03/24 11:30:38;;;;;;;38.17;23.30;;;;;;;;;;6160383;23;20008;-90
2022/03/24 11:33:04;;;;;;;37.47;23.42;;;;;;;;;;6183981;23;20009;-88
2022/03/24 11:35:33;;;;;;;33.15;21.08;;;;;;;;;;6183946;23;20012;-88
2022/03/24 11:38:00;;;;;;;29.40;18.80;;;;;;;;;;6185799;23;20016;-90
2022/03/24 11:40:36;;;;;;;34.30;19.83;;;;;;;;;;6184219;23;20070;-90
2022/03/24 11:43:21;;;;;;;32.22;19.75;;;;;;;;;;6160560;23;20016;-90
2022/03/24 11:45:59;;;;;;;38.00;20.63;;;;;;;;;;6185092;23;20380;-89
2022/03/24 11:48:40;;;;;;;40.22;20.70;;;;;;;;;;6184678;23;20017;-88
2022/03/24 11:51:21;;;;;;;37.92;21.50;;;;;;;;;;6209271;23;20095;-89
2022/03/24 11:54:10;;;;;;;35.22;18.73;;;;;;;;;;6233300;23;20019;-89
2022/03/24 11:57:11;;;;;;;42.58;22.17;;;;;;;;;;6225985;23;20047;-89
2022/03/24 11:59:49;;;;;;;38.67;20.55;;;;;;;;;;6183293;23;20012;-88
2022/03/24 12:02:19;;;;;;;39.75;21.67;;;;;;;;;;6185969;23;20009;-87
2022/03/24 12:04:50;;;;;;;40.60;20.80;;;;;;;;;;6235287;23;20013;-89
2022/03/24 12:07:18;;;;;;;35.47;18.15;;;;;;;;;;6186785;23;20572;-89
2022/03/24 12:09:54;;;;;;;40.08;20.23;;;;;;;;;;6182037;23;20017;-88
2022/03/24 12:12:20;;;;;;;38.00;22.98;;;;;;;;;;6182020;23;20016;-89
2022/03/24 12:14:47;;;;;;;38.95;22.20;;;;;;;;;;6194589;23;20009;-88
2022/03/24 12:17:34;;;;;;;38.20;21.70;;;;;;;;;;6193223;23;20095;-87
2022/03/24 12:20:24;;;;;;;42.58;21.95;;;;;;;;;;6194060;23;20421;-89
2022/03/24 12:22:51;;;;;;;40.22;22.58;;;;;;;;;;6193838;23;20012;-88
2022/03/24 12:25:24;;;;;;;41.38;23.25;;;;;;;;;;6166410;23;20013;-87
2022/03/24 12:28:01;;;;;;;34.05;20.38;;;;;;;;;;6164384;23;20020;-88
2022/03/24 12:30:34;;;;;;;42.05;21.30;;;;;;;;;;6185541;23;20049;-89
2022/03/24 12:33:12;;;;;;;33.17;20.40;;;;;;;;;;6184184;23;20036;-89
2022/03/24 12:35:44;;;;;;;41.35;19.42;;;;;;;;;;6182519;23;20020;-88
2022/03/24 12:38:13;;;;;;;;;;;;;;;;;;6183223;23;20012;-90
2022/03/24 12:41:02;;;;;;;37.15;19.42;;;;;;;;;;6208363;23;19912;-89
2022/03/24 12:43:49;;;;;;;32.47;17.58;;;;;;;;;;6183023;23;20385;-89
2022/03/24 12:46:32;;;;;;;34.40;20.60;;;;;;;;;;6181448;23;20008;-87
2022/03/24 12:49:18;;;;;;;37.10;19.95;;;;;;;;;;6182733;23;20450;-90
2022/03/24 12:51:53;;;;;;;36.78;21.85;;;;;;;;;;6184530;23;20574;-89
2022/03/24 12:54:20;;;;;;;37.95;20.85;;;;;;;;;;6232488;23;20016;-87
2022/03/24 12:56:46;;;;;;;36.60;20.85;;;;;;;;;;6181592;23;20039;-89
2022/03/24 12:59:12;;;;;;;35.33;19.40;;;;;;;;;;6158462;23;20024;-88
2022/03/24 13:01:39;;;;;;;37.03;20.30;;;;;;;;;;6156551;23;20021;-90
2022/03/24 13:04:07;;;;;;;39.88;20.42;;;;;;;;;;6158660;23;20020;-88
2022/03/24 13:06:37;;;;;;;37.13;20.02;;;;;;;;;;6185185;23;20103;-90
2022/03/24 13:09:16;;;;;;;37.30;20.42;;;;;;;;;;6185592;23;20021;-87
2022/03/24 13:11:54;;;;;;;33.03;20.40;;;;;;;;;;6182766;23;20012;-87
2022/03/24 13:14:21;;;;;;;39.25;21.05;;;;;;;;;;6181078;23;20017;-88
2022/03/24 13:17:00;;;;;;;30.08;19.85;;;;;;;;;;6183476;23;20108;-89
2022/03/24 13:19:27;;;;;;;39.28;21.40;;;;;;;;;;6183794;23;20012;-87
2022/03/24 13:21:53;;;;;;;37.25;19.92;;;;;;;;;;6159312;23;20024;-87
2022/03/24 13:24:23;;;;;;;39.83;20.58;;;;;;;;;;6164665;23;20335;-88
2022/03/24 13:27:02;;;;;;;38.30;20.80;;;;;;;;;;6181022;23;20115;-86
2022/03/24 13:29:38;;;;;;;34.72;20.52;;;;;;;;;;6182831;23;20020;-86
2022/03/24 13:32:08;;;;;;;42.22;19.83;;;;;;;;;;6182032;23;20518;-87
2022/03/24 13:34:34;;;;;;;34.75;19.90;;;;;;;;;;6181564;23;20008;-87
2022/03/24 13:37:10;;;;;;;33.90;21.17;;;;;;;;;;6155670;23;20012;-88
2022/03/24 13:39:37;;;;;;;37.83;20.90;;;;;;;;;;6181610;23;20008;-89
2022/03/24 13:42:07;;;;;;;35.83;22.02;;;;;;;;;;6158030;23;20021;-91
2022/03/24 13:44:35;;;;;;;38.03;21.35;;;;;;;;;;6182170;23;20012;-90
2022/03/24 13:47:01;;;;;;;35.28;21.52;;;;;;;;;;6181553;23;20062;-91
2022/03/24 13:49:28;;;;;;;37.10;22.38;;;;;;;;;;6158811;23;20012;-89
2022/03/24 13:51:54;;;;;;;39.58;24.00;;;;;;;;;;6159747;23;20191;-90
2022/03/24 13:54:21;;;;;;;38.47;22.33;;;;;;;;;;6159916;23;20012;-90
2022/03/24 13:56:47;;;;;;;39.40;22.27;;;;;;;;;;6185113;23;20048;-88
2022/03/24 13:59:13;;;;;;;34.10;20.83;;;;;;;;;;6157488;23;20020;-89
2022/03/24 14:01:39;;;;;;;34.75;22.20;;;;;;;;;;6182439;23;20023;-86
2022/03/24 14:04:18;;;;;;;41.42;23.52;;;;;;;;;;6178952;23;20012;-86
2022/03/24 14:07:07;;;;;;;40.38;22.15;;;;;;;;;;6182711;23;20051;-90
2022/03/24 14:09:34;;;;;;;40.80;22.88;;;;;;;;;;6232058;23;20017;-88
2022/03/24 14:12:05;;;;;;;37.17;22.92;;;;;;;;;;6182043;23;20440;-89
2022/03/24 14:14:31;;;;;;;40.30;23.17;;;;;;;;;;6232648;23;20346;-90
2022/03/24 14:16:58;;;;;;;40.53;23.65;;;;;;;;;;6181578;23;20059;-90
2022/03/24 14:19:27;;;;;;;39.42;22.58;;;;;;;;;;6181395;23;20012;-89
2022/03/24 14:22:01;;;;;;;37.28;22.83;;;;;;;;;;6182784;23;20088;-88
2022/03/24 14:24:30;;;;;;;40.97;23.50;;;;;;;;;;6231218;23;20311;-86
2022/03/24 14:26:59;;;;;;;41.08;22.95;;;;;;;;;;6180884;23;20009;-86
2022/03/24 14:29:26;;;;;;;38.22;21.80;;;;;;;;;;6182718;23;20017;-86
2022/03/24 14:32:08;;;;;;;37.88;22.50;;;;;;;;;;6180791;23;20555;-89
2022/03/24 14:34:34;;;;;;;39.53;23.70;;;;;;;;;;6160955;23;20060;-88
2022/03/24 14:37:09;;;;;;;40.15;24.48;;;;;;;;;;6179909;23;20016;-88
2022/03/24 14:39:44;;;;;;;39.50;25.08;;;;;;;;;;6179847;23;20008;-87
2022/03/24 14:42:11;;;;;;;41.42;24.10;;;;;;;;;;6181589;23;20074;-86
2022/03/24 14:44:37;;;;;;;38.05;25.23;;;;;;;;;;6155128;23;20015;-85
2022/03/24 14:47:03;;;;;;;42.97;24.75;;;;;;;;;;6181070;23;20079;-87
2022/03/24 14:49:30;;;;;;;35.78;25.00;;;;;;;;;;6180878;23;20047;-86
2022/03/24 14:51:56;;;;;;;38.65;24.95;;;;;;;;;;6157850;23;20012;-85
2022/03/24 14:54:22;;;;;;;42.30;25.50;;;;;;;;;;6184354;23;20017;-86
2022/03/24 14:56:49;;;;;;;41.78;23.80;;;;;;;;;;6154433;23;20028;-88
2022/03/24 14:59:16;;;;;;;33.80;23.23;;;;;;;;;;6156629;23;20500;-88
2022/03/24 15:01:42;;;;;;;39.88;24.63;;;;;;;;;;6182721;23;20062;-89
2022/03/24 15:04:08;;;;;;;35.65;24.27;;;;;;;;;;6185894;23;20020;-87
2022/03/24 15:06:35;;;;;;;39.00;23.95;;;;;;;;;;6183247;23;20012;-89
2022/03/24 15:09:01;;;;;;;55.90;34.72;;;;;;;;;;6156281;23;20120;-87
2022/03/24 15:11:27;;;;;;;68.28;43.88;;;;;;;;;;6231133;23;20013;-88
2022/03/24 15:16:38;;;;;;;68.75;43.85;;;;;;;;;;6186248;23;20020;-89
2022/03/24 15:19:04;;;;;;;65.63;41.20;;;;;;;;;;6183328;23;20392;-89
2022/03/24 15:21:31;;;;;;;69.90;44.45;;;;;;;;;;6182592;23;20043;-89
2022/03/24 15:23:57;;;;;;;65.60;43.67;;;;;;;;;;6159028;23;20021;-87
2022/03/24 15:26:24;;;;;;;71.18;45.38;;;;;;;;;;6182909;23;20056;-89
2022/03/24 15:28:51;;;;;;;72.47;44.60;;;;;;;;;;6182371;23;20017;-88
2022/03/24 15:31:18;;;;;;;68.80;42.53;;;;;;;;;;6182103;23;20103;-87
2022/03/24 15:33:45;;;;;;;72.80;45.15;;;;;;;;;;6182308;23;20063;-87
2022/03/24 15:36:12;;;;;;;65.35;43.00;;;;;;;;;;6186534;23;20023;-87
2022/03/24 15:38:38;;;;;;;68.30;44.78;;;;;;;;;;6183306;23;20023;-89
2022/03/24 15:41:04;;;;;;;66.20;42.38;;;;;;;;;;6182585;23;20023;-87
2022/03/24 15:43:31;;;;;;;65.03;42.42;;;;;;;;;;6158181;23;20012;-88
2022/03/24 15:45:57;;;;;;;68.80;43.53;;;;;;;;;;6157594;23;20009;-88
2022/03/24 15:48:23;;;;;;;64.15;42.33;;;;;;;;;;6181663;23;20728;-88
2022/03/24 15:50:49;;;;;;;67.57;43.13;;;;;;;;;;6181448;23;20013;-89
2022/03/24 15:53:15;;;;;;;67.35;41.35;;;;;;;;;;6181926;23;20017;-88
2022/03/24 15:55:41;;;;;;;64.18;41.22;;;;;;;;;;6181228;23;20019;-87
2022/03/24 15:58:08;;;;;;;63.58;41.22;;;;;;;;;;6155914;23;20162;-88
2022/03/24 16:00:35;;;;;;;66.97;42.40;;;;;;;;;;6154512;23;20013;-87
2022/03/24 16:03:02;;;;;;;63.63;43.28;;;;;;;;;;6178995;23;20438;-88
2022/03/24 16:05:33;;;;;;;63.55;42.75;;;;;;;;;;6177780;23;20516;-87
2022/03/24 16:08:00;;;;;;;58.42;41.08;;;;;;;;;;6154608;23;20027;-88
2022/03/24 16:10:26;;;;;;;63.75;41.45;;;;;;;;;;6155265;23;20017;-85
2022/03/24 16:12:52;;;;;;;60.92;42.05;;;;;;;;;;6180063;23;20689;-85
2022/03/24 16:15:19;;;;;;;69.20;43.90;;;;;;;;;;6179945;23;20063;-87
2022/03/24 16:17:45;;;;;;;63.13;44.58;;;;;;;;;;6155553;23;20028;-85
2022/03/24 16:20:15;;;;;;;63.63;44.33;;;;;;;;;;6156586;23;20013;-87
2022/03/24 16:22:43;;;;;;;64.60;43.60;;;;;;;;;;6182545;23;20071;-90
2022/03/24 16:25:10;;;;;;;66.15;45.10;;;;;;;;;;6155311;23;20048;-87
2022/03/24 16:27:36;;;;;;;65.10;44.85;;;;;;;;;;6155748;23;20016;-88
2022/03/24 16:30:03;;;;;;;69.15;46.78;;;;;;;;;;6152633;23;20048;-88
2022/03/24 16:32:29;;;;;;;66.68;46.15;;;;;;;;;;6179750;23;20073;-87
2022/03/24 16:34:55;;;;;;;77.78;43.28;;;;;;;;;;6180235;23;20062;-88
2022/03/24 16:37:22;;;;;;;63.63;40.78;;;;;;;;;;6155608;23;20450;-87
2022/03/24 16:39:48;;;;;;;72.40;41.03;;;;;;;;;;6156034;23;20358;-88
2022/03/24 16:42:14;;;;;;;58.38;40.33;;;;;;;;;;6180683;23;20008;-88
2022/03/24 16:44:40;;;;;;;60.95;38.03;;;;;;;;;;6156200;23;20016;-85
2022/03/24 16:47:12;;;;;;;62.22;38.42;;;;;;;;;;6179656;23;20068;-84
2022/03/24 16:49:41;;;;;;;64.00;36.70;;;;;;;;;;6181812;23;20074;-85
2022/03/24 16:52:08;;;;;;;55.80;34.55;;;;;;;;;;6180485;23;20096;-87
2022/03/24 16:54:34;;;;;;;51.58;32.92;;;;;;;;;;6181727;23;20012;-88
2022/03/24 16:57:00;;;;;;;55.97;30.67;;;;;;;;;;6181792;23;20052;-87
2022/03/24 16:59:27;;;;;;;51.33;28.98;;;;;;;;;;6157349;23;20012;-88
2022/03/24 17:01:53;;;;;;;49.67;27.88;;;;;;;;;;6231444;23;20074;-87
2022/03/24 17:04:19;;;;;;;48.42;29.45;;;;;;;;;;6160972;23;20013;-86
2022/03/24 17:06:45;;;;;;;58.38;30.85;;;;;;;;;;6155333;23;20087;-87
2022/03/24 17:09:12;;;;;;;53.10;30.98;;;;;;;;;;6154153;23;20016;-86
2022/03/24 17:11:38;;;;;;;48.28;30.77;;;;;;;;;;6155324;23;20017;-87
2022/03/24 17:14:05;;;;;;;54.15;31.35;;;;;;;;;;6156353;23;20446;-87
2022/03/24 17:16:31;;;;;;;51.78;30.88;;;;;;;;;;6180574;23;20052;-85
2022/03/24 17:18:58;;;;;;;55.00;31.65;;;;;;;;;;6183539;23;20023;-88
2022/03/24 17:21:27;;;;;;;55.45;33.03;;;;;;;;;;6158954;23;20043;-88
2022/03/24 17:23:53;;;;;;;52.10;30.02;;;;;;;;;;6184568;23;20031;-87
2022/03/24 17:26:25;;;;;;;50.80;32.08;;;;;;;;;;6158341;23;20008;-88
2022/03/24 17:28:52;;;;;;;54.38;31.52;;;;;;;;;;6184229;23;20052;-88
2022/03/24 17:31:19;;;;;;;56.88;33.53;;;;;;;;;;6184394;23;20013;-88
2022/03/24 17:33:45;;;;;;;57.55;32.42;;;;;;;;;;6183678;23;20067;-87
2022/03/24 17:36:12;;;;;;;58.47;33.75;;;;;;;;;;6183212;23;20108;-88
2022/03/24 17:38:38;;;;;;;56.45;31.00;;;;;;;;;;6183500;23;20017;-87
2022/03/24 17:41:04;;;;;;;56.53;32.78;;;;;;;;;;6158705;23;20017;-88
2022/03/24 17:43:31;;;;;;;54.00;32.28;;;;;;;;;;6184040;23;20023;-86
2022/03/24 17:45:57;;;;;;;58.10;31.48;;;;;;;;;;6159474;23;20353;-88
2022/03/24 17:48:23;;;;;;;54.65;30.10;;;;;;;;;;6158782;23;20024;-88
2022/03/24 17:50:49;;;;;;;56.58;31.30;;;;;;;;;;6160165;23;20008;-86
2022/03/24 17:53:15;;;;;;;54.95;30.85;;;;;;;;;;6185389;23;20357;-88
2022/03/24 17:55:41;;;;;;;68.38;32.88;;;;;;;;;;6184560;23;20019;-87
2022/03/24 17:58:08;;;;;;;58.70;32.35;;;;;;;;;;6160816;23;20017;-88
2022/03/24 18:00:35;;;;;;;62.55;33.63;;;;;;;;;;6185174;23;20013;-88
2022/03/24 18:03:01;;;;;;;62.60;32.03;;;;;;;;;;6160590;23;20023;-88
2022/03/24 18:05:28;;;;;;;63.13;32.55;;;;;;;;;;6184581;23;20040;-89
2022/03/24 18:07:54;;;;;;;65.70;33.38;;;;;;;;;;6184586;23;20013;-87
2022/03/24 18:10:20;;;;;;;61.80;31.45;;;;;;;;;;6155542;23;20020;-87
2022/03/24 18:12:46;;;;;;;58.78;33.53;;;;;;;;;;6180816;23;20013;-88
2022/03/24 18:15:15;;;;;;;60.13;33.90;;;;;;;;;;6184801;23;20024;-87
2022/03/24 18:17:42;;;;;;;67.18;35.53;;;;;;;;;;6160299;23;20019;-88
2022/03/24 18:20:08;;;;;;;69.50;35.10;;;;;;;;;;6159593;23;20028;-87
2022/03/24 18:22:35;;;;;;;69.32;36.15;;;;;;;;;;6234450;23;20466;-88
2022/03/24 18:25:02;;;;;;;77.75;37.13;;;;;;;;;;6186629;23;20086;-88
2022/03/24 18:27:31;;;;;;;62.78;34.65;;;;;;;;;;6159770;23;20515;-87
2022/03/24 18:29:58;;;;;;;68.57;37.25;;;;;;;;;;6184197;23;20017;-87
2022/03/24 18:32:24;;;;;;;68.68;37.38;;;;;;;;;;6159792;23;20017;-88
2022/03/24 18:34:50;;;;;;;69.75;38.30;;;;;;;;;;6159697;23;20441;-88
2022/03/24 18:37:17;;;;;;;67.32;37.28;;;;;;;;;;6182763;23;20031;-88
2022/03/24 18:39:43;;;;;;;74.40;38.65;;;;;;;;;;6184253;23;20051;-88
2022/03/24 18:42:10;;;;;;;67.50;37.90;;;;;;;;;;6158700;23;20008;-88
2022/03/24 18:44:36;;;;;;;70.53;40.15;;;;;;;;;;6184615;23;20008;-88
2022/03/24 18:47:02;;;;;;;75.68;41.72;;;;;;;;;;6158978;23;20066;-89
2022/03/24 18:49:28;;;;;;;81.18;42.53;;;;;;;;;;6183834;23;20039;-87
2022/03/24 18:51:54;;;;;;;77.82;43.55;;;;;;;;;;6159501;23;20013;-88
2022/03/24 18:54:20;;;;;;;78.28;45.72;;;;;;;;;;6158680;23;20013;-87
2022/03/24 18:56:46;;;;;;;77.95;46.08;;;;;;;;;;6157166;23;20016;-87
2022/03/24 18:59:13;;;;;;;81.30;46.33;;;;;;;;;;6183905;23;20051;-88
2022/03/24 19:01:39;;;;;;;81.80;47.40;;;;;;;;;;6234420;23;20028;-87
2022/03/24 19:04:05;;;;;;;79.72;47.08;;;;;;;;;;6159060;23;20012;-88
2022/03/24 19:06:31;;;;;;;81.15;49.67;;;;;;;;;;6158584;23;20009;-87
2022/03/24 19:08:57;;;;;;;82.10;50.22;;;;;;;;;;6183980;23;20017;-89
2022/03/24 19:11:24;;;;;;;79.03;48.53;;;;;;;;;;6183497;23;20075;-88
2022/03/24 19:13:50;;;;;;;87.72;52.22;;;;;;;;;;6159536;23;20013;-88
2022/03/24 19:16:16;;;;;;;86.82;51.05;;;;;;;;;;6183462;23;20446;-88
2022/03/24 19:18:42;;;;;;;83.95;51.25;;;;;;;;;;6183268;23;20016;-88
2022/03/24 19:21:09;;;;;;;87.00;52.92;;;;;;;;;;6183228;23;20047;-88
2022/03/24 19:23:35;;;;;;;83.82;51.83;;;;;;;;;;6182585;23;20016;-88
2022/03/24 19:26:02;;;;;;;83.15;51.58;;;;;;;;;;6182404;23;20013;-87
2022/03/24 19:28:28;;;;;;;89.03;53.33;;;;;;;;;;6158946;23;20013;-86
2022/03/24 19:30:54;;;;;;;85.07;51.20;;;;;;;;;;6125203;23;20032;-88
2022/03/24 19:33:21;;;;;;;96.50;55.90;;;;;;;;;;6128915;23;20286;-87
2022/03/24 19:35:47;;;;;;;89.60;55.50;;;;;;;;;;6147702;23;20020;-88
2022/03/24 19:38:14;;;;;;;95.10;56.22;;;;;;;;;;6145749;23;20020;-88
2022/03/24 19:40:40;;;;;;;94.32;55.15;;;;;;;;;;6147023;23;20021;-87
2022/03/24 19:43:06;;;;;;;95.38;55.20;;;;;;;;;;6201708;23;20022;-87
2022/03/24 19:45:32;;;;;;;89.95;55.70;;;;;;;;;;6152612;23;20047;-88
2022/03/24 19:48:00;;;;;;;92.43;56.03;;;;;;;;;;6152449;23;20027;-87
2022/03/24 19:50:27;;;;;;;98.13;57.47;;;;;;;;;;6153503;23;20103;-86
2022/03/24 19:52:54;;;;;;;95.20;58.75;;;;;;;;;;6127386;23;20017;-88
2022/03/24 19:55:23;;;;;;;100.65;57.28;;;;;;;;;;6150156;23;20353;-87
2022/03/24 19:57:49;;;;;;;97.25;59.53;;;;;;;;;;6177707;23;20039;-87
2022/03/24 20:00:15;;;;;;;100.65;58.80;;;;;;;;;;6125738;23;20819;-86
2022/03/24 20:02:42;;;;;;;104.63;59.90;;;;;;;;;;6127742;23;20020;-88
2022/03/24 20:05:10;;;;;;;101.68;59.22;;;;;;;;;;6125158;23;20020;-87
2022/03/24 20:07:36;;;;;;;99.40;58.65;;;;;;;;;;6127504;23;20012;-87
2022/03/24 20:10:03;;;;;;;103.93;61.03;;;;;;;;;;6128832;23;20048;-89
2022/03/24 20:12:29;;;;;;;111.97;64.60;;;;;;;;;;6129018;23;20778;-89
2022/03/24 20:14:55;;;;;;;121.38;67.57;;;;;;;;;;6127081;23;20009;-87
2022/03/24 20:17:22;;;;;;;105.75;61.92;;;;;;;;;;6127221;23;20707;-87
2022/03/24 20:19:48;;;;;;;107.38;64.32;;;;;;;;;;6127044;23;20460;-88
2022/03/24 20:22:15;;;;;;;101.00;58.58;;;;;;;;;;6149579;23;20008;-87
2022/03/24 20:24:42;;;;;;;106.68;62.17;;;;;;;;;;6148996;23;20024;-88
2022/03/24 20:27:09;;;;;;;105.55;62.13;;;;;;;;;;6146030;23;20446;-87
2022/03/24 20:29:36;;;;;;;99.80;58.95;;;;;;;;;;6140709;23;20017;-88
2022/03/24 20:32:09;;;;;;;101.40;61.42;;;;;;;;;;6144971;23;20044;-89
2022/03/24 20:34:35;;;;;;;102.40;61.45;;;;;;;;;;6145566;23;20497;-87
2022/03/24 20:37:01;;;;;;;106.47;61.50;;;;;;;;;;6142935;23;20024;-88
2022/03/24 20:39:28;;;;;;;108.00;63.85;;;;;;;;;;6146829;23;20017;-88
2022/03/24 20:41:57;;;;;;;105.88;59.33;;;;;;;;;;6123631;23;20097;-87
2022/03/24 20:44:23;;;;;;;118.32;65.80;;;;;;;;;;6147719;23;20721;-88
2022/03/24 20:46:49;;;;;;;112.78;63.60;;;;;;;;;;6145119;23;20017;-89
2022/03/24 20:49:15;;;;;;;105.15;60.92;;;;;;;;;;6121667;23;20454;-87
2022/03/24 20:51:42;;;;;;;113.93;65.53;;;;;;;;;;6145367;23;20392;-87
2022/03/24 20:54:11;;;;;;;114.40;65.53;;;;;;;;;;6124219;23;20566;-87
2022/03/24 20:56:37;;;;;;;109.82;61.78;;;;;;;;;;6145600;23;20105;-89
2022/03/24 20:59:04;;;;;;;109.97;65.78;;;;;;;;;;6144274;23;20675;-87
2022/03/24 21:01:30;;;;;;;116.10;66.78;;;;;;;;;;6142208;23;20019;-87
2022/03/24 21:03:56;;;;;;;116.88;67.05;;;;;;;;;;6146814;23;20017;-90
2022/03/24 21:06:31;;;;;;;116.32;65.97;;;;;;;;;;6149451;23;20124;-88
2022/03/24 21:09:00;;;;;;;113.88;66.20;;;;;;;;;;6148302;23;20017;-87
2022/03/24 21:11:29;;;;;;;115.93;66.30;;;;;;;;;;6146792;23;20814;-87
2022/03/24 21:13:58;;;;;;;123.68;68.63;;;;;;;;;;6124912;23;20013;-87
2022/03/24 21:16:25;;;;;;;124.85;68.78;;;;;;;;;;6121640;23;20016;-87
2022/03/24 21:18:51;;;;;;;123.55;68.45;;;;;;;;;;6147370;23;20358;-87
2022/03/24 21:21:19;;;;;;;127.05;70.50;;;;;;;;;;6122234;23;20013;-87
2022/03/24 21:23:46;;;;;;;116.97;66.93;;;;;;;;;;6147479;23;20028;-87
2022/03/24 21:26:13;;;;;;;122.63;66.22;;;;;;;;;;6148279;23;20016;-87
2022/03/24 21:28:39;;;;;;;130.40;70.57;;;;;;;;;;6152708;23;20044;-87
2022/03/24 21:31:05;;;;;;;125.05;66.43;;;;;;;;;;6126034;23;20032;-88
2022/03/24 21:33:32;;;;;;;129.13;69.80;;;;;;;;;;6127934;23;20095;-87
2022/03/24 21:35:59;;;;;;;128.20;72.03;;;;;;;;;;6151870;23;20021;-87
2022/03/24 21:38:26;;;;;;;135.13;73.25;;;;;;;;;;6149489;23;20050;-87
2022/03/24 21:40:55;;;;;;;133.38;71.45;;;;;;;;;;6147598;23;20021;-87
2022/03/24 21:43:21;;;;;;;133.75;72.90;;;;;;;;;;6154662;23;20021;-87
2022/03/24 21:45:48;;;;;;;140.52;74.53;;;;;;;;;;6150616;23;20012;-87
2022/03/24 21:48:14;;;;;;;140.20;74.32;;;;;;;;;;6151092;23;20017;-87
2022/03/24 21:50:42;;;;;;;150.45;77.20;;;;;;;;;;6125058;23;20180;-86
2022/03/24 21:53:08;;;;;;;146.15;77.47;;;;;;;;;;6128420;23;20408;-87
2022/03/24 21:55:34;;;;;;;129.85;71.18;;;;;;;;;;6150916;23;20024;-89
2022/03/24 21:58:04;;;;;;;145.35;75.22;;;;;;;;;;6128501;23;20047;-86